sensor_id;sensor_type;location;lat;lon;timestamp;pressure;altitude;pressure_sealevel;temperature;humidity
13033;BME280;6583;42.632;23.298;2023-04-28T00:02:17;71204.25;;;-146.40;44.73
13033;BME280;6583;42.632;23.298;2023-04-28T00:04:44;71222.44;;;-146.40;43.64
13033;BME280;6583;42.632;23.298;2023-04-28T00:07:11;71228.53;;;-146.40;44.38
13033;BME280;6583;42.632;23.298;2023-04-28T00:09:38;71230.56;;;-146.40;43.83
13033;BME280;6583;42.632;23.298;2023-04-28T00:12:05;71228.53;;;-146.40;44.53
13033;BME280;6583;42.632;23.298;2023-04-28T00:14:33;71226.50;;;-146.40;44.55
13033;BME280;6583;42.632;23.298;2023-04-28T00:16:59;71226.50;;;-146.40;44.85
13033;BME280;6583;42.632;23.298;2023-04-28T00:19:27;71228.53;;;-146.40;44.94
13033;BME280;6583;42.632;23.298;2023-04-28T00:21:54;71242.69;;;-146.40;44.47
13033;BME280;6583;42.632;23.298;2023-04-28T00:24:21;71250.78;;;-146.40;44.04
13033;BME280;6583;42.632;23.298;2023-04-28T00:26:47;71250.78;;;-146.40;44.71
13033;BME280;6583;42.632;23.298;2023-04-28T00:29:14;71246.75;;;-146.40;45.17
13033;BME280;6583;42.632;23.298;2023-04-28T00:31:43;71250.78;;;-146.40;45.45
13033;BME280;6583;42.632;23.298;2023-04-28T00:34:09;71244.72;;;-146.40;45.49
13033;BME280;6583;42.632;23.298;2023-04-28T00:36:38;71266.97;;;-146.40;44.67
13033;BME280;6583;42.632;23.298;2023-04-28T00:39:05;71258.88;;;-146.40;44.68
13033;BME280;6583;42.632;23.298;2023-04-28T00:41:33;71258.88;;;-146.40;45.35
13033;BME280;6583;42.632;23.298;2023-04-28T00:44:00;71254.84;;;-146.40;45.22
13033;BME280;6583;42.632;23.298;2023-04-28T00:46:29;71246.75;;;-146.40;45.46
13033;BME280;6583;42.632;23.298;2023-04-28T00:48:57;71242.69;;;-146.40;44.97
13033;BME280;6583;42.632;23.298;2023-04-28T00:51:24;71250.78;;;-146.40;45.50
13033;BME280;6583;42.632;23.298;2023-04-28T00:53:51;71271.03;;;-146.40;44.94
13033;BME280;6583;42.632;23.298;2023-04-28T00:56:18;71281.13;;;-146.40;45.05
13033;BME280;6583;42.632;23.298;2023-04-28T00:58:45;71285.19;;;-146.40;44.73
13033;BME280;6583;42.632;23.298;2023-04-28T01:01:12;71283.16;;;-146.40;45.91
13033;BME280;6583;42.632;23.298;2023-04-28T01:03:40;71295.31;;;-146.40;44.35
13033;BME280;6583;42.632;23.298;2023-04-28T01:06:08;71301.38;;;-146.40;45.52
13033;BME280;6583;42.632;23.298;2023-04-28T01:08:37;71307.44;;;-146.40;45.47
13033;BME280;6583;42.632;23.298;2023-04-28T01:11:04;71313.53;;;-146.40;44.68
13033;BME280;6583;42.632;23.298;2023-04-28T01:13:31;71315.53;;;-146.40;45.75
13033;BME280;6583;42.632;23.298;2023-04-28T01:15:58;71315.53;;;-146.40;46.46
13033;BME280;6583;42.632;23.298;2023-04-28T01:18:24;71315.53;;;-146.40;46.06
13033;BME280;6583;42.632;23.298;2023-04-28T01:20:52;71311.50;;;-146.40;45.44
13033;BME280;6583;42.632;23.298;2023-04-28T01:23:20;71313.53;;;-146.40;46.38
13033;BME280;6583;42.632;23.298;2023-04-28T01:25:48;71319.59;;;-146.40;45.31
13033;BME280;6583;42.632;23.298;2023-04-28T01:28:14;71321.63;;;-146.40;45.24
13033;BME280;6583;42.632;23.298;2023-04-28T01:30:41;71323.63;;;-146.40;45.33
13033;BME280;6583;42.632;23.298;2023-04-28T01:33:08;71319.59;;;-146.40;45.19
13033;BME280;6583;42.632;23.298;2023-04-28T01:35:34;71325.66;;;-146.40;44.99
13033;BME280;6583;42.632;23.298;2023-04-28T01:38:01;71315.53;;;-146.40;45.25
13033;BME280;6583;42.632;23.298;2023-04-28T01:40:28;71311.50;;;-146.40;45.44
13033;BME280;6583;42.632;23.298;2023-04-28T01:42:56;71297.34;;;-146.40;46.02
13033;BME280;6583;42.632;23.298;2023-04-28T01:45:22;71299.34;;;-146.40;45.87
13033;BME280;6583;42.632;23.298;2023-04-28T01:47:49;71303.41;;;-146.40;45.00
13033;BME280;6583;42.632;23.298;2023-04-28T01:50:16;71301.38;;;-146.40;45.49
13033;BME280;6583;42.632;23.298;2023-04-28T01:52:43;71303.41;;;-146.40;45.89
13033;BME280;6583;42.632;23.298;2023-04-28T01:55:09;71307.44;;;-146.40;45.63
13033;BME280;6583;42.632;23.298;2023-04-28T01:57:36;71323.63;;;-146.40;46.50
13033;BME280;6583;42.632;23.298;2023-04-28T02:00:05;71323.63;;;-146.40;45.95
13033;BME280;6583;42.632;23.298;2023-04-28T02:02:32;71319.59;;;-146.40;46.40
13033;BME280;6583;42.632;23.298;2023-04-28T02:04:59;71323.63;;;-146.40;46.96
13033;BME280;6583;42.632;23.298;2023-04-28T02:07:25;71331.72;;;-146.40;46.71
13033;BME280;6583;42.632;23.298;2023-04-28T02:09:52;71339.81;;;-146.40;47.45
13033;BME280;6583;42.632;23.298;2023-04-28T02:12:18;71333.75;;;-146.40;47.37
13033;BME280;6583;42.632;23.298;2023-04-28T02:14:45;71343.88;;;-146.40;47.18
13033;BME280;6583;42.632;23.298;2023-04-28T02:17:13;71351.97;;;-146.40;46.39
13033;BME280;6583;42.632;23.298;2023-04-28T02:19:40;71360.06;;;-146.40;46.66
13033;BME280;6583;42.632;23.298;2023-04-28T02:22:06;71343.88;;;-146.40;47.77
13033;BME280;6583;42.632;23.298;2023-04-28T02:24:34;71349.94;;;-146.40;48.08
13033;BME280;6583;42.632;23.298;2023-04-28T02:27:01;71351.97;;;-146.40;48.52
13033;BME280;6583;42.632;23.298;2023-04-28T02:29:29;71358.03;;;-146.40;47.65
13033;BME280;6583;42.632;23.298;2023-04-28T02:31:56;71360.06;;;-146.40;47.11
13033;BME280;6583;42.632;23.298;2023-04-28T02:34:24;71364.13;;;-146.40;47.64
13033;BME280;6583;42.632;23.298;2023-04-28T02:36:51;71366.13;;;-146.40;47.98
13033;BME280;6583;42.632;23.298;2023-04-28T02:39:17;71370.19;;;-146.40;48.10
13033;BME280;6583;42.632;23.298;2023-04-28T02:41:45;71380.31;;;-146.40;47.03
13033;BME280;6583;42.632;23.298;2023-04-28T02:44:12;71384.34;;;-146.40;47.54
13033;BME280;6583;42.632;23.298;2023-04-28T02:46:38;71372.22;;;-146.40;47.56
13033;BME280;6583;42.632;23.298;2023-04-28T02:49:05;71380.31;;;-146.40;48.04
13033;BME280;6583;42.632;23.298;2023-04-28T02:51:33;71392.44;;;-146.40;47.59
13033;BME280;6583;42.632;23.298;2023-04-28T02:54:00;71386.38;;;-146.40;48.05
13033;BME280;6583;42.632;23.298;2023-04-28T02:56:26;71372.22;;;-146.40;48.10
13033;BME280;6583;42.632;23.298;2023-04-28T02:58:54;71378.28;;;-146.40;47.47
13033;BME280;6583;42.632;23.298;2023-04-28T03:01:21;71378.28;;;-146.40;47.75
13033;BME280;6583;42.632;23.298;2023-04-28T03:03:47;71396.50;;;-146.40;46.64
13033;BME280;6583;42.632;23.298;2023-04-28T03:06:14;71394.47;;;-146.40;47.12
13033;BME280;6583;42.632;23.298;2023-04-28T03:08:42;71400.53;;;-146.40;45.67
13033;BME280;6583;42.632;23.298;2023-04-28T03:11:09;71404.59;;;-146.40;46.33
13033;BME280;6583;42.632;23.298;2023-04-28T03:13:36;71400.53;;;-146.40;46.83
13033;BME280;6583;42.632;23.298;2023-04-28T03:16:03;71408.63;;;-146.40;46.04
13033;BME280;6583;42.632;23.298;2023-04-28T03:18:30;71412.69;;;-146.40;46.20
13033;BME280;6583;42.632;23.298;2023-04-28T03:20:57;71416.72;;;-146.40;46.46
13033;BME280;6583;42.632;23.298;2023-04-28T03:23:23;71410.66;;;-146.40;46.20
13033;BME280;6583;42.632;23.298;2023-04-28T03:25:52;71406.59;;;-146.40;46.97
13033;BME280;6583;42.632;23.298;2023-04-28T03:28:18;71408.63;;;-146.40;45.61
13033;BME280;6583;42.632;23.298;2023-04-28T03:30:45;71404.59;;;-146.40;46.16
13033;BME280;6583;42.632;23.298;2023-04-28T03:33:11;71404.59;;;-146.40;46.32
13033;BME280;6583;42.632;23.298;2023-04-28T03:35:38;71412.69;;;-146.40;45.65
13033;BME280;6583;42.632;23.298;2023-04-28T03:38:05;71424.81;;;-146.40;46.48
13033;BME280;6583;42.632;23.298;2023-04-28T03:40:32;71422.81;;;-146.40;46.00
13033;BME280;6583;42.632;23.298;2023-04-28T03:43:00;71418.75;;;-146.40;47.09
13033;BME280;6583;42.632;23.298;2023-04-28T03:45:26;71420.78;;;-146.40;46.31
13033;BME280;6583;42.632;23.298;2023-04-28T03:47:53;71420.78;;;-146.40;45.94
13033;BME280;6583;42.632;23.298;2023-04-28T03:50:20;71418.75;;;-146.40;45.21
13033;BME280;6583;42.632;23.298;2023-04-28T03:52:46;71434.94;;;-146.40;45.76
13033;BME280;6583;42.632;23.298;2023-04-28T03:55:13;71432.91;;;-146.40;45.32
13033;BME280;6583;42.632;23.298;2023-04-28T03:57:40;71424.81;;;-146.40;45.69
13033;BME280;6583;42.632;23.298;2023-04-28T04:00:09;71439.00;;;-146.40;45.19
13033;BME280;6583;42.632;23.298;2023-04-28T04:02:36;71424.81;;;-146.40;46.24
13033;BME280;6583;42.632;23.298;2023-04-28T04:05:04;71426.84;;;-146.40;44.38
13033;BME280;6583;42.632;23.298;2023-04-28T04:07:31;71432.91;;;-146.40;44.49
13033;BME280;6583;42.632;23.298;2023-04-28T04:09:57;71424.81;;;-146.40;44.39
13033;BME280;6583;42.632;23.298;2023-04-28T04:12:24;71420.78;;;-146.40;44.68
13033;BME280;6583;42.632;23.298;2023-04-28T04:14:51;71414.69;;;-146.40;43.90
13033;BME280;6583;42.632;23.298;2023-04-28T04:17:19;71402.56;;;-146.40;44.65
13033;BME280;6583;42.632;23.298;2023-04-28T04:19:45;71396.50;;;-146.40;44.95
13033;BME280;6583;42.632;23.298;2023-04-28T04:22:12;71390.41;;;-146.40;45.25
13033;BME280;6583;42.632;23.298;2023-04-28T04:24:39;71380.31;;;-146.40;43.52
13033;BME280;6583;42.632;23.298;2023-04-28T04:27:06;71378.28;;;-146.40;43.56
13033;BME280;6583;42.632;23.298;2023-04-28T04:29:32;71370.19;;;-146.40;43.10
13033;BME280;6583;42.632;23.298;2023-04-28T04:31:59;71360.06;;;-146.40;43.38
13033;BME280;6583;42.632;23.298;2023-04-28T04:34:27;71368.16;;;-146.40;43.17
13033;BME280;6583;42.632;23.298;2023-04-28T04:36:54;71358.03;;;-146.40;43.36
13033;BME280;6583;42.632;23.298;2023-04-28T04:39:21;71368.16;;;-146.40;42.88
13033;BME280;6583;42.632;23.298;2023-04-28T04:41:48;71358.03;;;-146.40;43.04
13033;BME280;6583;42.632;23.298;2023-04-28T04:44:14;71343.88;;;-146.40;43.83
13033;BME280;6583;42.632;23.298;2023-04-28T04:46:41;71335.78;;;-146.40;43.48
13033;BME280;6583;42.632;23.298;2023-04-28T04:49:08;71327.69;;;-146.40;44.04
13033;BME280;6583;42.632;23.298;2023-04-28T04:51:36;71331.72;;;-146.40;43.83
13033;BME280;6583;42.632;23.298;2023-04-28T04:54:03;71327.69;;;-146.40;42.99
13033;BME280;6583;42.632;23.298;2023-04-28T04:56:30;71317.56;;;-146.40;43.31
13033;BME280;6583;42.632;23.298;2023-04-28T04:58:56;71319.59;;;-146.40;43.18
13033;BME280;6583;42.632;23.298;2023-04-28T05:01:23;71317.56;;;-146.40;43.86
13033;BME280;6583;42.632;23.298;2023-04-28T05:03:50;71315.53;;;-146.40;43.36
13033;BME280;6583;42.632;23.298;2023-04-28T05:06:16;71319.59;;;-146.40;43.40
13033;BME280;6583;42.632;23.298;2023-04-28T05:08:44;71317.56;;;-146.40;43.95
13033;BME280;6583;42.632;23.298;2023-04-28T05:11:11;71309.47;;;-146.40;43.66
13033;BME280;6583;42.632;23.298;2023-04-28T05:13:37;71301.38;;;-146.40;43.75
13033;BME280;6583;42.632;23.298;2023-04-28T05:16:05;71291.25;;;-146.40;43.95
13033;BME280;6583;42.632;23.298;2023-04-28T05:18:32;71297.34;;;-146.40;43.20
13033;BME280;6583;42.632;23.298;2023-04-28T05:20:59;71299.34;;;-146.40;42.52
13033;BME280;6583;42.632;23.298;2023-04-28T05:23:25;71295.31;;;-146.40;42.41
13033;BME280;6583;42.632;23.298;2023-04-28T05:25:53;71305.41;;;-146.40;43.18
13033;BME280;6583;42.632;23.298;2023-04-28T05:28:20;71287.22;;;-146.40;43.08
13033;BME280;6583;42.632;23.298;2023-04-28T05:30:47;71291.25;;;-146.40;42.66
13033;BME280;6583;42.632;23.298;2023-04-28T05:33:14;71275.06;;;-146.40;43.63
13033;BME280;6583;42.632;23.298;2023-04-28T05:35:40;71258.88;;;-146.40;42.75
13033;BME280;6583;42.632;23.298;2023-04-28T05:38:07;71275.06;;;-146.40;40.97
13033;BME280;6583;42.632;23.298;2023-04-28T05:40:34;71269.00;;;-146.40;40.94
13033;BME280;6583;42.632;23.298;2023-04-28T05:43:02;71258.88;;;-146.40;42.20
13033;BME280;6583;42.632;23.298;2023-04-28T05:45:28;71240.66;;;-146.40;42.09
13033;BME280;6583;42.632;23.298;2023-04-28T05:47:55;71238.66;;;-146.40;41.67
13033;BME280;6583;42.632;23.298;2023-04-28T05:50:22;71240.66;;;-146.40;41.15
13033;BME280;6583;42.632;23.298;2023-04-28T05:52:48;71230.56;;;-146.40;41.96
13033;BME280;6583;42.632;23.298;2023-04-28T05:55:15;71246.75;;;-146.40;40.94
13033;BME280;6583;42.632;23.298;2023-04-28T05:57:42;71269.00;;;-146.40;40.47
13033;BME280;6583;42.632;23.298;2023-04-28T06:00:11;71262.94;;;-146.40;41.19
13033;BME280;6583;42.632;23.298;2023-04-28T06:02:38;71258.88;;;-146.40;40.70
13033;BME280;6583;42.632;23.298;2023-04-28T06:05:06;71271.03;;;-146.40;40.46
13033;BME280;6583;42.632;23.298;2023-04-28T06:07:33;71262.94;;;-146.40;40.35
13033;BME280;6583;42.632;23.298;2023-04-28T06:10:00;71264.94;;;-146.40;40.72
13033;BME280;6583;42.632;23.298;2023-04-28T06:12:26;71238.66;;;-146.40;40.58
13033;BME280;6583;42.632;23.298;2023-04-28T06:14:53;71222.44;;;-146.40;40.38
13033;BME280;6583;42.632;23.298;2023-04-28T06:17:21;71210.31;;;-146.40;39.48
13033;BME280;6583;42.632;23.298;2023-04-28T06:19:48;71177.94;;;-146.40;40.29
13033;BME280;6583;42.632;23.298;2023-04-28T06:22:15;71175.91;;;-146.40;39.49
13033;BME280;6583;42.632;23.298;2023-04-28T06:24:42;71169.84;;;-146.40;39.60
13033;BME280;6583;42.632;23.298;2023-04-28T06:27:08;71167.81;;;-146.40;38.70
13033;BME280;6583;42.632;23.298;2023-04-28T06:29:36;71145.56;;;-146.40;39.02
13033;BME280;6583;42.632;23.298;2023-04-28T06:32:03;71135.44;;;-146.40;38.71
13033;BME280;6583;42.632;23.298;2023-04-28T06:34:31;71125.31;;;-146.40;39.02
13033;BME280;6583;42.632;23.298;2023-04-28T06:36:57;71109.13;;;-146.40;39.38
13033;BME280;6583;42.632;23.298;2023-04-28T06:39:24;71082.81;;;-146.40;38.76
13033;BME280;6583;42.632;23.298;2023-04-28T06:41:51;71107.13;;;-146.40;38.20
13033;BME280;6583;42.632;23.298;2023-04-28T06:44:17;71133.41;;;-146.40;38.00
13033;BME280;6583;42.632;23.298;2023-04-28T06:46:44;71109.13;;;-146.40;38.80
13033;BME280;6583;42.632;23.298;2023-04-28T06:49:11;71115.19;;;-146.40;38.28
13033;BME280;6583;42.632;23.298;2023-04-28T06:51:39;71117.22;;;-146.40;37.81
13033;BME280;6583;42.632;23.298;2023-04-28T06:54:05;71084.84;;;-146.40;38.96
13033;BME280;6583;42.632;23.298;2023-04-28T06:56:32;71080.81;;;-146.40;38.00
13033;BME280;6583;42.632;23.298;2023-04-28T06:58:59;71080.81;;;-146.40;38.85
13033;BME280;6583;42.632;23.298;2023-04-28T07:01:25;71032.25;;;-146.40;39.49
13033;BME280;6583;42.632;23.298;2023-04-28T07:15:13;70900.72;;;-146.40;36.96
13033;BME280;6583;42.632;23.298;2023-04-28T07:17:39;70927.03;;;-146.40;36.78
13033;BME280;6583;42.632;23.298;2023-04-28T07:20:07;70951.31;;;-146.40;36.28
13033;BME280;6583;42.632;23.298;2023-04-28T07:22:34;70963.44;;;-146.40;38.11
13033;BME280;6583;42.632;23.298;2023-04-28T07:25:01;70959.41;;;-146.40;36.81
13033;BME280;6583;42.632;23.298;2023-04-28T07:27:28;70963.44;;;-146.40;36.34
13033;BME280;6583;42.632;23.298;2023-04-28T07:29:55;70971.53;;;-146.40;36.66
13033;BME280;6583;42.632;23.298;2023-04-28T07:32:23;70953.31;;;-146.40;36.33
13033;BME280;6583;42.632;23.298;2023-04-28T07:34:50;70971.53;;;-146.40;36.31
13033;BME280;6583;42.632;23.298;2023-04-28T07:37:17;70941.19;;;-146.40;36.65
13033;BME280;6583;42.632;23.298;2023-04-28T07:39:44;70922.97;;;-146.40;36.97
13033;BME280;6583;42.632;23.298;2023-04-28T07:42:10;70916.91;;;-146.40;35.88
13033;BME280;6583;42.632;23.298;2023-04-28T07:44:37;70906.78;;;-146.40;36.03
13033;BME280;6583;42.632;23.298;2023-04-28T07:47:04;70927.03;;;-146.40;36.13
13033;BME280;6583;42.632;23.298;2023-04-28T07:49:32;70908.81;;;-146.40;36.24
13033;BME280;6583;42.632;23.298;2023-04-28T07:51:58;70898.69;;;-146.40;36.62
13033;BME280;6583;42.632;23.298;2023-04-28T07:54:25;70862.28;;;-146.40;36.72
13033;BME280;6583;42.632;23.298;2023-04-28T07:56:52;70878.47;;;-146.40;35.18
13033;BME280;6583;42.632;23.298;2023-04-28T08:09:57;70724.69;;;-146.40;34.23
13033;BME280;6583;42.632;23.298;2023-04-28T08:12:24;70757.06;;;-146.40;34.27
13033;BME280;6583;42.632;23.298;2023-04-28T08:14:50;70787.41;;;-146.40;34.78
13033;BME280;6583;42.632;23.298;2023-04-28T08:17:17;70765.16;;;-146.40;35.05
13033;BME280;6583;42.632;23.298;2023-04-28T08:19:44;70736.81;;;-146.40;35.62
13033;BME280;6583;42.632;23.298;2023-04-28T08:22:11;70734.78;;;-146.40;33.63
13033;BME280;6583;42.632;23.298;2023-04-28T08:24:38;70738.84;;;-146.40;33.77
13033;BME280;6583;42.632;23.298;2023-04-28T08:27:06;70710.50;;;-146.40;34.33
13033;BME280;6583;42.632;23.298;2023-04-28T08:29:33;70700.41;;;-146.40;34.50
13033;BME280;6583;42.632;23.298;2023-04-28T08:32:00;70692.31;;;-146.40;34.22
13033;BME280;6583;42.632;23.298;2023-04-28T08:34:26;70684.22;;;-146.40;33.70
13033;BME280;6583;42.632;23.298;2023-04-28T08:36:53;70659.94;;;-146.40;33.66
13033;BME280;6583;42.632;23.298;2023-04-28T08:39:20;70641.72;;;-146.40;33.74
13033;BME280;6583;42.632;23.298;2023-04-28T08:41:48;70668.03;;;-146.40;33.00
13033;BME280;6583;42.632;23.298;2023-04-28T08:44:16;70655.88;;;-146.40;33.43
13033;BME280;6583;42.632;23.298;2023-04-28T08:46:43;70643.75;;;-146.40;32.29
13033;BME280;6583;42.632;23.298;2023-04-28T08:49:13;70637.69;;;-146.40;32.60
13033;BME280;6583;42.632;23.298;2023-04-28T08:51:44;70623.50;;;-146.40;33.07
13033;BME280;6583;42.632;23.298;2023-04-28T08:54:13;70599.22;;;-146.40;33.34
13033;BME280;6583;42.632;23.298;2023-04-28T08:56:40;70605.31;;;-146.40;32.47
13033;BME280;6583;42.632;23.298;2023-04-28T08:59:10;70663.97;;;-146.40;33.72
13033;BME280;6583;42.632;23.298;2023-04-28T09:01:39;70647.78;;;-146.40;33.24
13033;BME280;6583;42.632;23.298;2023-04-28T09:04:06;70631.59;;;-146.40;34.22
13033;BME280;6583;42.632;23.298;2023-04-28T09:06:36;70619.47;;;-146.40;33.12
13033;BME280;6583;42.632;23.298;2023-04-28T09:09:20;70611.38;;;-146.40;32.64
13033;BME280;6583;42.632;23.298;2023-04-28T09:11:50;70621.50;;;-146.40;33.23
13033;BME280;6583;42.632;23.298;2023-04-28T09:14:17;70629.59;;;-146.40;33.30
13033;BME280;6583;42.632;23.298;2023-04-28T09:16:45;70611.38;;;-146.40;33.49
13033;BME280;6583;42.632;23.298;2023-04-28T09:19:12;70591.16;;;-146.40;33.52
13033;BME280;6583;42.632;23.298;2023-04-28T09:21:51;70595.19;;;-146.40;31.94
13033;BME280;6583;42.632;23.298;2023-04-28T09:24:28;70570.91;;;-146.40;32.97
13033;BME280;6583;42.632;23.298;2023-04-28T09:26:55;70572.94;;;-146.40;33.13
13033;BME280;6583;42.632;23.298;2023-04-28T09:29:22;70562.81;;;-146.40;33.92
13033;BME280;6583;42.632;23.298;2023-04-28T09:31:51;70593.16;;;-146.40;32.97
13033;BME280;6583;42.632;23.298;2023-04-28T09:34:18;70589.13;;;-146.40;33.13
13033;BME280;6583;42.632;23.298;2023-04-28T09:36:45;70579.00;;;-146.40;33.33
13033;BME280;6583;42.632;23.298;2023-04-28T09:39:11;70603.28;;;-146.40;32.91
13033;BME280;6583;42.632;23.298;2023-04-28T09:41:39;70599.22;;;-146.40;33.39
13033;BME280;6583;42.632;23.298;2023-04-28T09:44:13;70566.88;;;-146.40;33.09
13033;BME280;6583;42.632;23.298;2023-04-28T10:03:47;70433.34;;;-146.40;30.88
13033;BME280;6583;42.632;23.298;2023-04-28T10:06:14;70449.53;;;-146.40;31.70
13033;BME280;6583;42.632;23.298;2023-04-28T10:08:41;70479.88;;;-146.40;31.16
13033;BME280;6583;42.632;23.298;2023-04-28T10:11:10;70506.16;;;-146.40;31.54
13033;BME280;6583;42.632;23.298;2023-04-28T10:13:37;70494.03;;;-146.40;32.11
13033;BME280;6583;42.632;23.298;2023-04-28T10:16:05;70510.22;;;-146.40;31.48
13033;BME280;6583;42.632;23.298;2023-04-28T10:18:33;70528.41;;;-146.40;32.20
13033;BME280;6583;42.632;23.298;2023-04-28T10:21:03;70512.25;;;-146.40;31.69
13033;BME280;6583;42.632;23.298;2023-04-28T10:23:51;70492.00;;;-146.40;32.41
13033;BME280;6583;42.632;23.298;2023-04-28T10:26:35;70473.78;;;-146.40;31.86
13033;BME280;6583;42.632;23.298;2023-04-28T10:29:13;70461.66;;;-146.40;32.30
13033;BME280;6583;42.632;23.298;2023-04-28T10:32:17;70441.44;;;-146.40;31.86
13033;BME280;6583;42.632;23.298;2023-04-28T10:34:45;70451.53;;;-146.40;30.94
13033;BME280;6583;42.632;23.298;2023-04-28T10:37:12;70457.59;;;-146.40;31.18
13033;BME280;6583;42.632;23.298;2023-04-28T10:39:40;70473.78;;;-146.40;31.56
13033;BME280;6583;42.632;23.298;2023-04-28T10:45:08;70461.66;;;-146.40;31.75
13033;BME280;6583;42.632;23.298;2023-04-28T10:48:00;70461.66;;;-146.40;32.09
13033;BME280;6583;42.632;23.298;2023-04-28T10:50:30;70417.16;;;-146.40;32.23
13033;BME280;6583;42.632;23.298;2023-04-28T10:52:57;70400.97;;;-146.40;31.26
13033;BME280;6583;42.632;23.298;2023-04-28T10:55:29;70396.91;;;-146.40;31.73
13033;BME280;6583;42.632;23.298;2023-04-28T10:58:31;70384.78;;;-146.40;29.99
13033;BME280;6583;42.632;23.298;2023-04-28T11:01:24;70396.91;;;-146.40;30.84
13033;BME280;6583;42.632;23.298;2023-04-28T11:03:53;70415.13;;;-146.40;30.74
13033;BME280;6583;42.632;23.298;2023-04-28T11:06:25;70386.81;;;-146.40;31.27
13033;BME280;6583;42.632;23.298;2023-04-28T11:08:53;70360.50;;;-146.40;30.55
13033;BME280;6583;42.632;23.298;2023-04-28T11:11:24;70384.78;;;-146.40;29.98
13033;BME280;6583;42.632;23.298;2023-04-28T11:13:52;70409.06;;;-146.40;30.17
13033;BME280;6583;42.632;23.298;2023-04-28T11:16:22;70413.09;;;-146.40;30.73
13033;BME280;6583;42.632;23.298;2023-04-28T11:18:53;70421.19;;;-146.40;30.07
13033;BME280;6583;42.632;23.298;2023-04-28T11:21:21;70425.25;;;-146.40;30.42
13033;BME280;6583;42.632;23.298;2023-04-28T11:23:49;70429.28;;;-146.40;30.26
13033;BME280;6583;42.632;23.298;2023-04-28T11:26:15;70417.16;;;-146.40;32.06
13033;BME280;6583;42.632;23.298;2023-04-28T11:28:51;70413.09;;;-146.40;29.40
13033;BME280;6583;42.632;23.298;2023-04-28T11:31:19;70409.06;;;-146.40;29.66
13033;BME280;6583;42.632;23.298;2023-04-28T11:33:55;70407.03;;;-146.40;29.41
13033;BME280;6583;42.632;23.298;2023-04-28T11:36:28;70396.91;;;-146.40;29.66
13033;BME280;6583;42.632;23.298;2023-04-28T11:38:56;70384.78;;;-146.40;30.12
13033;BME280;6583;42.632;23.298;2023-04-28T11:41:23;70376.69;;;-146.40;29.43
13033;BME280;6583;42.632;23.298;2023-04-28T11:43:51;70364.53;;;-146.40;29.85
13033;BME280;6583;42.632;23.298;2023-04-28T11:46:19;70360.50;;;-146.40;29.85
13033;BME280;6583;42.632;23.298;2023-04-28T11:48:46;70376.69;;;-146.40;29.60
13033;BME280;6583;42.632;23.298;2023-04-28T11:51:35;70380.72;;;-146.40;30.16
13033;BME280;6583;42.632;23.298;2023-04-28T11:54:02;70382.75;;;-146.40;29.26
13033;BME280;6583;42.632;23.298;2023-04-28T11:56:29;70368.59;;;-146.40;29.99
13033;BME280;6583;42.632;23.298;2023-04-28T11:59:04;70358.47;;;-146.40;29.34
13033;BME280;6583;42.632;23.298;2023-04-28T12:01:32;70386.81;;;-146.40;28.95
13033;BME280;6583;42.632;23.298;2023-04-28T12:04:02;70380.72;;;-146.40;29.84
13033;BME280;6583;42.632;23.298;2023-04-28T12:06:29;70358.47;;;-146.40;29.18
13033;BME280;6583;42.632;23.298;2023-04-28T12:08:57;70354.44;;;-146.40;28.76
13033;BME280;6583;42.632;23.298;2023-04-28T12:11:28;70342.28;;;-146.40;28.95
13033;BME280;6583;42.632;23.298;2023-04-28T12:14:05;70336.22;;;-146.40;29.09
13033;BME280;6583;42.632;23.298;2023-04-28T12:16:39;70344.31;;;-146.40;28.50
13033;BME280;6583;42.632;23.298;2023-04-28T12:19:09;70328.13;;;-146.40;29.10
13033;BME280;6583;42.632;23.298;2023-04-28T12:21:37;70320.03;;;-146.40;30.46
13033;BME280;6583;42.632;23.298;2023-04-28T12:24:19;70320.03;;;-146.40;29.35
13033;BME280;6583;42.632;23.298;2023-04-28T12:26:47;70316.00;;;-146.40;29.59
13033;BME280;6583;42.632;23.298;2023-04-28T12:29:39;70332.19;;;-146.40;29.08
13033;BME280;6583;42.632;23.298;2023-04-28T12:32:07;70320.03;;;-146.40;29.62
13033;BME280;6583;42.632;23.298;2023-04-28T12:34:34;70316.00;;;-146.40;29.75
13033;BME280;6583;42.632;23.298;2023-04-28T12:37:02;70320.03;;;-146.40;30.09
13033;BME280;6583;42.632;23.298;2023-04-28T12:39:32;70307.91;;;-146.40;30.26
13033;BME280;6583;42.632;23.298;2023-04-28T12:41:59;70301.84;;;-146.40;28.90
13033;BME280;6583;42.632;23.298;2023-04-28T12:44:27;70291.72;;;-146.40;28.66
13033;BME280;6583;42.632;23.298;2023-04-28T12:46:54;70295.75;;;-146.40;29.24
13033;BME280;6583;42.632;23.298;2023-04-28T12:49:21;70309.91;;;-146.40;28.62
13033;BME280;6583;42.632;23.298;2023-04-28T12:51:48;70311.94;;;-146.40;28.28
13033;BME280;6583;42.632;23.298;2023-04-28T12:54:14;70305.88;;;-146.40;28.51
13033;BME280;6583;42.632;23.298;2023-04-28T12:56:42;70311.94;;;-146.40;28.06
13033;BME280;6583;42.632;23.298;2023-04-28T12:59:09;70291.72;;;-146.40;28.93
13033;BME280;6583;42.632;23.298;2023-04-28T13:01:36;70289.69;;;-146.40;28.93
13033;BME280;6583;42.632;23.298;2023-04-28T13:04:02;70277.56;;;-146.40;29.59
13033;BME280;6583;42.632;23.298;2023-04-28T13:06:29;70273.50;;;-146.40;30.18
13033;BME280;6583;42.632;23.298;2023-04-28T13:08:57;70259.34;;;-146.40;29.81
13033;BME280;6583;42.632;23.298;2023-04-28T13:11:23;70247.22;;;-146.40;30.03
13033;BME280;6583;42.632;23.298;2023-04-28T13:13:53;70249.22;;;-146.40;29.41
13033;BME280;6583;42.632;23.298;2023-04-28T13:16:21;70257.31;;;-146.40;29.08
13033;BME280;6583;42.632;23.298;2023-04-28T13:18:49;70249.22;;;-146.40;28.83
13033;BME280;6583;42.632;23.298;2023-04-28T13:21:17;70249.22;;;-146.40;30.14
13033;BME280;6583;42.632;23.298;2023-04-28T13:23:43;70255.28;;;-146.40;29.81
13033;BME280;6583;42.632;23.298;2023-04-28T13:26:10;70247.22;;;-146.40;29.70
13033;BME280;6583;42.632;23.298;2023-04-28T13:28:37;70231.03;;;-146.40;30.92